This is the latest recevied weather packets stored in our database for station/object DG2MCM-11. If no packets are shown the sender has not sent any weather packets the latest 1 day(s).
| Time | Temp. | Humidity | Pressure | Rain* | Wind** | Luminosity | Snow |
|---|---|---|---|---|---|---|---|
| 1778006879 | 14.44° C | 73% | 1008.6 hPa | 0 mm | 0 m/s | - | - |
| 1778006277 | 15° C | 73% | 1008.1 hPa | 0 mm | 0 m/s | - | - |
| 1778005074 | 15.56° C | 67% | 1007.6 hPa | 0 mm | 0 m/s | - | - |
| 1778004472 | 16.11° C | 64% | 1007.2 hPa | 0 mm | 0 m/s | - | - |
| 1778003869 | 16.67° C | 61% | 1006.9 hPa | 0 mm | 0 m/s | - | - |
| 1778003267 | 17.22° C | 60% | 1006.7 hPa | 0 mm | 0 m/s | - | - |
| 1778002125 | 17.78° C | 56% | 1006.4 hPa | 0 mm | 0 m/s | - | - |
| 1778001522 | 17.78° C | 54% | 1006.2 hPa | 0 mm | 0 m/s | - | - |
| 1778000320 | 18.33° C | 52% | 1006 hPa | 0 mm | 0 m/s | - | - |
| 1777999718 | 18.89° C | 50% | 1005.8 hPa | 0 mm | 0 m/s | - | - |
| 1777998515 | 18.89° C | 54% | 1005.8 hPa | 0 mm | 0 m/s | - | - |
| 1777997914 | 19.44° C | 54% | 1005.7 hPa | 0 mm | 0 m/s | - | - |
| 1777996110 | 18.33° C | 56% | 1006.1 hPa | 0 mm | 0 m/s | - | - |
| 1777990689 | 21.11° C | 48% | 1005.3 hPa | 0 mm | 0 m/s | - | - |
| 1777990087 | 21.11° C | 47% | 1005.4 hPa | 0 mm | 0 m/s | - | - |
| 1777989485 | 21.11° C | 47% | 1005.4 hPa | 0 mm | 0 m/s | - | - |
| 1777988884 | 21.11° C | 48% | 1005.6 hPa | 0 mm | 0 m/s | - | - |
| 1777988282 | 21.11° C | 46% | 1005.6 hPa | 0 mm | 0 m/s | - | - |
| 1777987680 | 21.67° C | 44% | 1005.4 hPa | 0 mm | 0 m/s | - | - |
| 1777987078 | 23.33° C | 44% | 1005 hPa | 0 mm | 0 m/s | - | - |
| 1777986477 | 22.22° C | 45% | 1005.5 hPa | 0 mm | 0 m/s | - | - |
| 1777985875 | 21.67° C | 46% | 1005.7 hPa | 0 mm | 0 m/s | - | - |
| 1777985273 | 21.11° C | 52% | 1005.7 hPa | 0 mm | 0 m/s | - | - |
| 1777984671 | 20.56° C | 55% | 1005.8 hPa | 0 mm | 0 m/s | - | - |
| 1777984068 | 19.44° C | 57% | 1006.2 hPa | 0 mm | 0 m/s | - | - |
* Rain latest hour (hover to see other rain measurements)
** Current wind speed in m/s (hover to see current wind gust speed)